createdAt,value
2017-05-08T00:00:02.991Z,1018.19
2017-05-08T00:05:02.932Z,1018.16
2017-05-08T00:10:03.629Z,1018.17
2017-05-08T00:16:06.412Z,1018.19
2017-05-08T00:20:03.013Z,1018.19
2017-05-08T00:25:03.633Z,1018.13
2017-05-08T00:30:03.324Z,1018.17
2017-05-08T00:35:03.003Z,1018.1
2017-05-08T00:40:03.639Z,1018.13
2017-05-08T00:45:03.542Z,1018.12
2017-05-08T00:50:03.167Z,1018.08
2017-05-08T00:55:02.839Z,1018.04
2017-05-08T01:00:03.599Z,1017.96
2017-05-08T01:05:03.331Z,1017.92
2017-05-08T01:10:03.026Z,1017.92
2017-05-08T01:15:03.662Z,1017.85
2017-05-08T01:20:03.310Z,1017.92
2017-05-08T01:25:03.031Z,1017.92
2017-05-08T01:30:03.717Z,1017.86
2017-05-08T01:35:03.354Z,1018
2017-05-08T01:40:03.125Z,1018.03
2017-05-08T01:45:02.696Z,1017.96
2017-05-08T01:50:03.331Z,1017.9
2017-05-08T01:55:02.908Z,1017.89
2017-05-08T02:00:03.589Z,1017.88
2017-05-08T02:05:03.182Z,1017.88
2017-05-08T02:10:02.826Z,1017.91
2017-05-08T02:15:03.508Z,1017.9
2017-05-08T02:20:03.224Z,1017.86
2017-05-08T02:25:02.935Z,1017.88
2017-05-08T02:30:03.550Z,1017.87
2017-05-08T02:35:03.186Z,1017.85
2017-05-08T02:40:02.973Z,1017.87
2017-05-08T02:45:02.662Z,1017.86
2017-05-08T02:50:03.281Z,1017.89
2017-05-08T02:55:03.001Z,1017.88
2017-05-08T03:00:02.753Z,1017.88
2017-05-08T03:05:03.570Z,1017.86
2017-05-08T03:10:03.223Z,1017.86
2017-05-08T03:15:02.888Z,1017.91
2017-05-08T03:20:03.541Z,1017.93
2017-05-08T03:25:03.283Z,1017.99
2017-05-08T03:30:02.879Z,1018.02
2017-05-08T03:35:03.651Z,1018.12
2017-05-08T03:40:03.347Z,1018.1
2017-05-08T03:45:02.956Z,1018.07
2017-05-08T03:50:02.695Z,1018.12
2017-05-08T03:55:03.441Z,1018.12
2017-05-08T04:05:03.206Z,1018.1
2017-05-08T04:10:03.039Z,1018.08
2017-05-08T04:15:02.684Z,1018.12
2017-05-08T04:20:03.476Z,1018.11
2017-05-08T04:25:03.159Z,1018.14
2017-05-08T04:30:02.853Z,1018.13
2017-05-08T04:35:03.384Z,1018.16
2017-05-08T04:40:03.234Z,1018.27
2017-05-08T04:45:02.972Z,1018.21
2017-05-08T04:50:03.563Z,1018.32
2017-05-08T04:55:03.190Z,1018.27
2017-05-08T05:00:02.936Z,1018.28
2017-05-08T05:05:02.733Z,1018.33
2017-05-08T05:10:03.599Z,1018.28
2017-05-08T05:15:03.383Z,1018.34
2017-05-08T05:20:02.968Z,1018.25
2017-05-08T05:25:03.556Z,1018.27
2017-05-08T05:30:03.289Z,1018.26
2017-05-08T05:35:03.081Z,1018.22
2017-05-08T05:40:02.864Z,1018.19
2017-05-08T05:45:03.645Z,1018.18
2017-05-08T05:50:03.275Z,1018.19
2017-05-08T05:55:02.858Z,1018.27
2017-05-08T06:00:03.509Z,1018.3
2017-05-08T06:05:03.149Z,1018.35
2017-05-08T06:10:02.811Z,1018.29
2017-05-08T06:15:03.475Z,1018.3
2017-05-08T06:20:03.367Z,1018.36
2017-05-08T06:25:03.063Z,1018.29
2017-05-08T06:30:02.676Z,1018.25
2017-05-08T06:35:03.352Z,1018.25
2017-05-08T06:40:03.145Z,1018.26
2017-05-08T06:45:02.910Z,1018.3
2017-05-08T06:50:03.623Z,1018.27
2017-05-08T06:55:03.264Z,1018.32
2017-05-08T07:00:02.823Z,1018.41
2017-05-08T07:05:03.571Z,1018.38
2017-05-08T07:10:03.418Z,1018.45
2017-05-08T07:15:03.012Z,1018.38
2017-05-08T07:20:02.837Z,1018.46
2017-05-08T07:25:03.658Z,1018.46
2017-05-08T07:30:03.453Z,1018.6
2017-05-08T07:35:03.157Z,1018.53
2017-05-08T07:40:02.734Z,1018.51
2017-05-08T07:45:03.357Z,1018.57
2017-05-08T07:50:03.193Z,1018.61
2017-05-08T07:55:02.907Z,1018.68
2017-05-08T08:00:03.665Z,1018.63
2017-05-08T08:05:03.509Z,1018.63
2017-05-08T08:10:03.458Z,1018.62
2017-05-08T08:15:03.123Z,1018.64
2017-05-08T08:20:02.912Z,1018.7
2017-05-08T08:25:03.010Z,1018.77
2017-05-08T08:30:02.919Z,1018.79
2017-05-08T08:35:03.623Z,1018.77
2017-05-08T08:40:03.483Z,1018.79
2017-05-08T08:45:03.296Z,1018.85
2017-05-08T08:50:02.950Z,1018.93
2017-05-08T08:55:02.722Z,1018.97
2017-05-08T09:00:03.458Z,1018.97
2017-05-08T09:05:03.100Z,1018.97
2017-05-08T09:10:02.891Z,1019.01
2017-05-08T09:15:02.675Z,1019.08
2017-05-08T09:20:03.482Z,1019.19
2017-05-08T09:25:03.156Z,1019.18
2017-05-08T09:30:02.919Z,1019.23
2017-05-08T09:35:03.663Z,1019.31
2017-05-08T09:40:03.312Z,1019.34
2017-05-08T09:45:03.014Z,1019.39
2017-05-08T09:50:02.683Z,1019.48
2017-05-08T09:55:03.285Z,1019.54
2017-05-08T10:00:02.914Z,1019.56
2017-05-08T10:05:03.430Z,1019.55
2017-05-08T10:10:03.273Z,1019.58
2017-05-08T10:15:03.136Z,1019.65
2017-05-08T10:20:02.788Z,1019.61
2017-05-08T10:25:03.523Z,1019.59
2017-05-08T10:30:02.727Z,1019.58
2017-05-08T10:35:03.546Z,1019.59
2017-05-08T10:40:03.595Z,1019.66
2017-05-08T10:45:03.347Z,1019.62
2017-05-08T10:50:03.014Z,1019.65
2017-05-08T10:55:03.281Z,1019.71
2017-05-08T11:00:02.954Z,1019.75
2017-05-08T11:05:03.594Z,1019.76
2017-05-08T11:10:03.591Z,1019.76
2017-05-08T11:15:03.270Z,1019.83
2017-05-08T11:20:02.967Z,1019.79
2017-05-08T11:25:02.730Z,1019.87
2017-05-08T11:30:03.484Z,1019.87
2017-05-08T11:35:03.136Z,1019.82
2017-05-08T11:40:02.843Z,1019.9
2017-05-08T11:45:03.581Z,1019.93
2017-05-08T11:50:03.235Z,1019.98
2017-05-08T11:55:03.018Z,1020.01
2017-05-08T12:00:02.851Z,1020.07
2017-05-08T12:05:02.664Z,1020.11
2017-05-08T12:10:03.507Z,1020.13
2017-05-08T12:15:03.478Z,1020.1
2017-05-08T12:20:03.463Z,1020.13
2017-05-08T12:25:03.780Z,1020.19
2017-05-08T12:30:03.562Z,1020.18
2017-05-08T12:35:03.471Z,1020.14
2017-05-08T12:40:03.450Z,1020.19
2017-05-08T12:45:03.319Z,1020.18
2017-05-08T12:50:03.356Z,1020.2
2017-05-08T12:55:03.506Z,1020.14
2017-05-08T13:00:02.706Z,1020.11
2017-05-08T13:05:02.982Z,1020.15
2017-05-08T13:10:02.794Z,1020.15
2017-05-08T13:15:02.734Z,1020.07
2017-05-08T13:20:03.094Z,1020
2017-05-08T13:25:02.751Z,1020.07
2017-05-08T13:30:03.208Z,1019.93
2017-05-08T13:35:03.138Z,1019.92
2017-05-08T13:40:03.245Z,1019.86
2017-05-08T13:45:03.260Z,1019.84
2017-05-08T13:50:03.512Z,1019.82
2017-05-08T13:55:02.976Z,1019.67
2017-05-08T14:00:03.081Z,1019.66
2017-05-08T14:05:03.370Z,1019.63
2017-05-08T14:10:02.783Z,1019.63
2017-05-08T14:15:02.897Z,1019.72
2017-05-08T14:20:03.423Z,1019.65
2017-05-08T14:25:03.126Z,1019.7
2017-05-08T14:30:03.459Z,1019.57
2017-05-08T14:35:03.225Z,1019.55
2017-05-08T14:40:02.837Z,1019.56
2017-05-08T14:45:03.042Z,1019.63
2017-05-08T14:50:03.489Z,1019.58
2017-05-08T14:55:02.913Z,1019.53
2017-05-08T15:00:02.691Z,1019.43
2017-05-08T15:05:02.704Z,1019.5
2017-05-08T15:10:03.590Z,1019.5
2017-05-08T15:15:03.613Z,1019.49
2017-05-08T15:20:03.423Z,1019.5
2017-05-08T15:25:03.216Z,1019.48
2017-05-08T15:30:03.622Z,1019.47
2017-05-08T15:35:02.895Z,1019.45
2017-05-08T15:40:03.277Z,1019.54
2017-05-08T15:45:03.157Z,1019.56
2017-05-08T15:50:03.043Z,1019.58
2017-05-08T15:55:02.907Z,1019.69
2017-05-08T16:00:03.269Z,1019.65
2017-05-08T16:05:03.453Z,1019.69
2017-05-08T16:10:03.292Z,1019.64
2017-05-08T16:15:03.186Z,1019.7
2017-05-08T16:20:02.856Z,1019.78
2017-05-08T16:25:03.661Z,1019.75
2017-05-08T16:30:03.334Z,1019.67
2017-05-08T16:35:02.930Z,1019.73
2017-05-08T16:40:03.574Z,1019.87
2017-05-08T16:45:03.205Z,1019.89
2017-05-08T16:50:02.826Z,1019.87
2017-05-08T16:55:03.444Z,1019.97
2017-05-08T17:00:03.110Z,1020.1
2017-05-08T17:05:02.723Z,1020.04
2017-05-08T17:10:03.540Z,1020.13
2017-05-08T17:15:03.185Z,1020.19
2017-05-08T17:20:02.965Z,1020.21
2017-05-08T17:25:03.557Z,1020.3
2017-05-08T17:30:03.297Z,1020.41
2017-05-08T17:35:02.958Z,1020.37
2017-05-08T17:40:02.788Z,1020.44
2017-05-08T17:45:03.430Z,1020.41
2017-05-08T17:50:03.151Z,1020.47
2017-05-08T17:55:02.733Z,1020.56
2017-05-08T18:00:03.386Z,1020.66
2017-05-08T18:05:03.025Z,1020.69
2017-05-08T18:10:02.693Z,1020.78
2017-05-08T18:15:02.723Z,1020.76
2017-05-08T18:20:03.550Z,1020.92
2017-05-08T18:25:03.217Z,1021
2017-05-08T18:30:02.877Z,1021.12
2017-05-08T18:35:02.666Z,1021.26
2017-05-08T18:40:03.507Z,1021.31
2017-05-08T18:45:03.381Z,1021.39
2017-05-08T18:50:03.575Z,1021.44
2017-05-08T18:55:03.080Z,1021.49
2017-05-08T19:00:02.807Z,1021.61
2017-05-08T19:05:03.648Z,1021.6
2017-05-08T19:10:02.657Z,1021.64
2017-05-08T19:15:02.762Z,1021.72
2017-05-08T19:20:02.749Z,1021.87
2017-05-08T19:25:02.702Z,1021.88
2017-05-08T19:30:02.811Z,1021.92
2017-05-08T19:35:02.740Z,1021.94
2017-05-08T19:40:02.718Z,1022.14
2017-05-08T19:45:02.733Z,1022.17
2017-05-08T19:50:03.563Z,1022.24
2017-05-08T19:55:02.703Z,1022.37
2017-05-08T20:00:03.548Z,1022.4
2017-05-08T20:05:03.436Z,1022.55
2017-05-08T20:10:03.273Z,1022.65
2017-05-08T20:15:03.653Z,1022.72
2017-05-08T20:20:02.706Z,1022.7
2017-05-08T20:25:02.728Z,1022.72
2017-05-08T20:30:02.852Z,1022.77
2017-05-08T20:35:02.700Z,1022.79
2017-05-08T20:40:03.342Z,1022.74
2017-05-08T20:45:03.275Z,1022.83
2017-05-08T20:50:02.859Z,1022.87
2017-05-08T20:55:02.956Z,1022.86
2017-05-08T21:00:03.674Z,1022.97
2017-05-08T21:05:03.436Z,1022.96
2017-05-08T21:10:02.836Z,1022.96
2017-05-08T21:15:03.093Z,1023.01
2017-05-08T21:20:03.157Z,1022.99
2017-05-08T21:25:03.285Z,1023.09
2017-05-08T21:30:03.327Z,1023.13
2017-05-08T21:35:03.076Z,1023.16
2017-05-08T21:40:02.726Z,1023.23
2017-05-08T21:45:03.565Z,1023.26
2017-05-08T21:50:03.331Z,1023.34
2017-05-08T21:55:02.957Z,1023.44
2017-05-08T22:00:03.623Z,1023.51
2017-05-08T22:05:03.262Z,1023.43
2017-05-08T22:10:03.127Z,1023.44
2017-05-08T22:15:02.757Z,1023.41
2017-05-08T22:20:03.572Z,1023.49
2017-05-08T22:25:03.171Z,1023.52
2017-05-08T22:30:02.757Z,1023.5
2017-05-08T22:35:03.358Z,1023.52
2017-05-08T22:40:03.068Z,1023.52
2017-05-08T22:45:02.680Z,1023.57
2017-05-08T22:50:03.508Z,1023.56
2017-05-08T22:55:03.212Z,1023.52
2017-05-08T23:00:02.843Z,1023.53
2017-05-08T23:05:03.494Z,1023.62
2017-05-08T23:10:03.354Z,1023.55
2017-05-08T23:15:02.971Z,1023.54
2017-05-08T23:20:02.743Z,1023.53
2017-05-08T23:25:03.386Z,1023.57
2017-05-08T23:30:03.028Z,1023.54
2017-05-08T23:35:02.796Z,1023.49
2017-05-08T23:40:03.569Z,1023.55
2017-05-08T23:45:06.224Z,1023.57
2017-05-08T23:50:02.901Z,1023.49
2017-05-08T23:55:03.530Z,1023.51
